Time;durP1;ratioP1;P1;durP2;ratioP2;P2;SDS_P1;SDS_P2;PMS_P1;PMS_P2;Temp;Humidity;BMP_temperature;BMP_pressure;BME280_temperature;BME280_humidity;BME280_pressure;Samples;Min_cycle;Max_cycle;Signal;HPM_P1;HPM_P2
2022/02/21 00:02:15;;;;;;;0.90;0.20;;;10.30;1.00;;;;;;5057636;28;20429;-57
2022/02/21 00:04:42;;;;;;;0.90;0.20;;;10.30;1.00;;;;;;5057862;28;20741;-57
2022/02/21 00:07:09;;;;;;;0.30;0.10;;;10.30;1.00;;;;;;5057670;28;20422;-57
2022/02/21 00:09:37;;;;;;;0.50;0.20;;;10.30;1.00;;;;;;5055471;28;20429;-57
2022/02/21 00:12:04;;;;;;;0.55;0.20;;;10.30;1.00;;;;;;5055470;28;20725;-52
2022/02/21 00:14:31;;;;;;;0.73;0.20;;;10.40;1.00;;;;;;5055642;28;20439;-57
2022/02/21 00:16:58;;;;;;;0.40;0.20;;;10.40;1.00;;;;;;5054201;28;20425;-56
2022/02/21 00:19:24;;;;;;;0.32;0.20;;;10.40;1.00;;;;;;5054811;28;20713;-57
2022/02/21 00:21:51;;;;;;;0.60;0.15;;;10.40;99.90;;;;;;5055180;28;20697;-56
2022/02/21 00:24:18;;;;;;;0.40;0.20;;;10.40;99.90;;;;;;5055344;28;20433;-57
2022/02/21 00:26:46;;;;;;;1.00;0.20;;;10.50;99.90;;;;;;5054901;28;20433;-57
2022/02/21 00:29:13;;;;;;;0.30;0.20;;;10.50;99.90;;;;;;5056097;28;20429;-57
2022/02/21 00:31:40;;;;;;;1.60;0.20;;;10.40;99.90;;;;;;5055512;28;20426;-58
2022/02/21 00:34:07;;;;;;;1.77;0.20;;;10.50;99.90;;;;;;5055277;28;20721;-56
2022/02/21 00:36:34;;;;;;;0.77;0.20;;;10.40;99.90;;;;;;5054482;28;20428;-57
2022/02/21 00:39:01;;;;;;;0.40;0.20;;;10.40;1.00;;;;;;5054582;28;20433;-55
2022/02/21 00:41:27;;;;;;;0.40;0.20;;;10.40;1.00;;;;;;5054675;28;20809;-57
2022/02/21 00:43:55;;;;;;;1.10;0.20;;;10.40;1.00;;;;;;5053719;28;20437;-54
2022/02/21 00:46:22;;;;;;;0.60;0.20;;;10.40;1.00;;;;;;5054895;28;20852;-58
2022/02/21 00:48:49;;;;;;;0.90;0.13;;;10.40;99.90;;;;;;5054141;28;20440;-57
2022/02/21 00:51:16;;;;;;;0.73;0.20;;;10.40;99.90;;;;;;5054140;28;20441;-53
2022/02/21 00:53:43;;;;;;;0.88;0.17;;;10.40;1.00;;;;;;5054841;28;20424;-51
2022/02/21 00:56:09;;;;;;;0.70;0.20;;;10.30;99.90;;;;;;5055592;28;20440;-52
2022/02/21 00:58:36;;;;;;;0.93;0.20;;;10.30;1.00;;;;;;5055607;28;20528;-56
2022/02/21 01:01:05;;;;;;;0.50;0.20;;;10.20;1.00;;;;;;5055578;28;20717;-56
2022/02/21 01:03:32;;;;;;;0.80;0.20;;;10.20;1.00;;;;;;5055294;28;20443;-54
2022/02/21 01:05:58;;;;;;;1.60;0.20;;;10.20;1.00;;;;;;5055568;28;20515;-54
2022/02/21 01:08:25;;;;;;;0.90;0.10;;;10.10;49.60;;;;;;5055233;28;20429;-53
2022/02/21 01:10:52;;;;;;;1.00;0.20;;;10.20;1.00;;;;;;5054135;28;20832;-57
2022/02/21 01:13:19;;;;;;;0.53;0.20;;;10.10;99.90;;;;;;5054150;28;20447;-54
2022/02/21 01:15:46;;;;;;;1.17;0.20;;;10.20;1.00;;;;;;5053828;28;20422;-54
2022/02/21 01:18:14;;;;;;;1.00;0.30;;;10.10;99.90;;;;;;5054751;28;20429;-55
2022/02/21 01:20:42;;;;;;;0.47;0.20;;;10.10;99.90;;;;;;5054089;28;20425;-56
2022/02/21 01:23:08;;;;;;;0.50;0.10;;;10.00;1.00;;;;;;5054092;28;20731;-54
2022/02/21 01:25:35;;;;;;;0.60;0.20;;;10.00;44.70;;;;;;5053919;28;20421;-53
2022/02/21 01:28:02;;;;;;;1.08;0.20;;;10.00;99.90;;;;;;5054171;28;20429;-56
2022/02/21 01:30:29;;;;;;;1.08;0.20;;;10.00;96.40;;;;;;5054879;28;20425;-57
2022/02/21 01:32:56;;;;;;;0.90;0.20;;;10.00;99.90;;;;;;4990630;28;1834142;-57
2022/02/21 01:35:24;;;;;;;0.70;0.30;;;9.90;99.90;;;;;;5055822;28;20421;-55
2022/02/21 01:37:51;;;;;;;0.50;0.10;;;9.90;99.90;;;;;;5054036;28;20432;-56
2022/02/21 01:40:20;;;;;;;0.80;0.10;;;9.90;99.90;;;;;;5053737;28;20519;-53
2022/02/21 01:42:47;;;;;;;0.60;0.20;;;9.90;99.90;;;;;;5055146;28;20429;-54
2022/02/21 01:45:14;;;;;;;1.08;0.20;;;9.90;99.90;;;;;;5056018;28;20510;-58
2022/02/21 01:47:42;;;;;;;0.40;0.20;;;9.90;99.90;;;;;;5056063;28;20425;-51
2022/02/21 01:50:09;;;;;;;0.70;0.20;;;9.90;99.90;;;;;;5055992;28;20712;-56
2022/02/21 01:52:38;;;;;;;0.40;0.20;;;9.90;99.90;;;;;;5055320;28;20417;-57
2022/02/21 01:55:06;;;;;;;0.40;0.20;;;9.90;99.90;;;;;;5055212;28;20427;-56
2022/02/21 01:57:34;;;;;;;0.70;0.20;;;9.90;99.90;;;;;;5054957;28;20425;-57
2022/02/21 02:00:00;;;;;;;0.50;0.20;;;9.90;99.90;;;;;;5055270;28;20433;-58
2022/02/21 02:02:27;;;;;;;0.70;0.20;;;9.90;99.90;;;;;;5055305;28;20433;-57
2022/02/21 02:04:54;;;;;;;0.63;0.20;;;9.90;1.00;;;;;;5055021;28;20433;-55
2022/02/21 02:07:21;;;;;;;1.00;0.10;;;10.00;1.00;;;;;;5055122;28;20420;-55
2022/02/21 02:09:50;;;;;;;0.90;0.20;;;10.00;1.00;;;;;;5054902;28;20430;-57
2022/02/21 02:12:16;;;;;;;1.00;0.20;;;10.00;1.00;;;;;;5055569;28;20421;-54
2022/02/21 02:14:43;;;;;;;0.30;0.10;;;10.00;99.90;;;;;;5055741;28;20710;-54
2022/02/21 02:17:12;;;;;;;0.30;0.10;;;10.00;1.00;;;;;;5055540;28;20512;-54
2022/02/21 02:19:40;;;;;;;0.70;0.20;;;10.00;99.90;;;;;;5054833;28;20729;-57
2022/02/21 02:22:11;;;;;;;0.90;0.20;;;9.90;99.90;;;;;;5054525;28;20424;-55
2022/02/21 02:24:39;;;;;;;1.30;0.20;;;9.90;99.90;;;;;;5054685;28;20421;-56
2022/02/21 02:27:08;;;;;;;0.40;0.10;;;9.90;1.00;;;;;;5054442;28;20421;-53
2022/02/21 02:29:35;;;;;;;0.35;0.20;;;9.90;1.00;;;;;;5054640;28;20432;-56
2022/02/21 02:32:02;;;;;;;0.30;0.10;;;9.90;1.00;;;;;;5054136;28;20435;-56
2022/02/21 02:34:29;;;;;;;0.40;0.20;;;9.90;1.00;;;;;;5055076;28;20678;-57
2022/02/21 02:36:56;;;;;;;0.30;0.10;;;9.90;1.00;;;;;;5055013;28;20417;-57
2022/02/21 02:39:25;;;;;;;0.70;0.20;;;9.90;18.30;;;;;;5055444;28;20833;-57
2022/02/21 02:41:53;;;;;;;0.50;0.20;;;9.80;99.90;;;;;;5054965;28;20418;-56
2022/02/21 02:44:20;;;;;;;0.30;0.10;;;9.80;1.00;;;;;;5054932;28;20443;-54
2022/02/21 02:46:47;;;;;;;0.40;0.10;;;9.70;1.00;;;;;;5054928;28;20509;-51
2022/02/21 02:49:14;;;;;;;0.40;0.20;;;9.70;1.00;;;;;;5055287;28;20870;-53
2022/02/21 02:51:41;;;;;;;0.40;0.10;;;9.70;1.00;;;;;;5055042;28;20421;-56
2022/02/21 02:54:10;;;;;;;1.50;0.30;;;9.60;1.00;;;;;;5059149;28;20431;-51
2022/02/21 02:56:39;;;;;;;0.40;0.20;;;9.50;1.00;;;;;;5059376;28;20432;-56
2022/02/21 02:59:06;;;;;;;0.30;0.10;;;9.50;1.00;;;;;;5059253;28;20487;-54
2022/02/21 03:01:33;;;;;;;0.60;0.20;;;9.60;1.00;;;;;;5059076;28;20837;-52
2022/02/21 03:04:01;;;;;;;0.95;0.20;;;9.50;1.00;;;;;;5058738;28;20569;-55
2022/02/21 03:06:28;;;;;;;0.70;0.20;;;9.50;1.00;;;;;;5058678;28;20421;-56
2022/02/21 03:08:55;;;;;;;0.50;0.20;;;9.60;1.00;;;;;;5058844;28;20428;-54
2022/02/21 03:11:22;;;;;;;0.50;0.17;;;9.60;1.00;;;;;;5058792;28;20508;-57
2022/02/21 03:13:50;;;;;;;1.88;0.10;;;9.70;1.00;;;;;;5058768;28;20826;-57
2022/02/21 03:16:17;;;;;;;0.60;0.10;;;9.70;1.00;;;;;;5057804;28;20419;-52
2022/02/21 03:18:44;;;;;;;0.40;0.20;;;9.70;1.00;;;;;;5057042;28;20499;-55
2022/02/21 03:21:11;;;;;;;1.50;0.20;;;9.80;1.00;;;;;;5056216;28;20427;-55
2022/02/21 03:23:39;;;;;;;0.90;0.20;;;9.80;1.00;;;;;;5056049;28;20945;-52
2022/02/21 03:26:05;;;;;;;0.40;0.10;;;9.80;1.00;;;;;;5047982;28;20425;-55
2022/02/21 03:28:33;;;;;;;0.77;0.10;;;9.80;1.00;;;;;;5056241;28;20911;-54
2022/02/21 03:31:01;;;;;;;1.00;0.10;;;9.80;1.00;;;;;;5056051;28;20487;-57
2022/02/21 03:33:28;;;;;;;0.40;0.10;;;9.80;1.00;;;;;;5056689;28;20571;-57
2022/02/21 03:35:55;;;;;;;0.40;0.10;;;9.80;1.00;;;;;;5057513;28;20423;-61
2022/02/21 03:38:22;;;;;;;0.30;0.10;;;9.80;1.00;;;;;;5057930;28;20431;-54
2022/02/21 03:40:51;;;;;;;0.47;0.20;;;9.80;1.00;;;;;;5058079;28;20419;-57
2022/02/21 03:43:18;;;;;;;1.10;0.10;;;9.80;1.00;;;;;;5058517;28;20540;-55
2022/02/21 03:45:45;;;;;;;0.90;0.10;;;9.60;1.00;;;;;;5058302;28;20724;-45
2022/02/21 03:48:17;;;;;;;0.30;0.10;;;8.20;1.00;;;;;;5057878;28;20425;-47
2022/02/21 03:50:44;;;;;;;0.50;0.10;;;7.30;1.00;;;;;;5057472;28;20417;-54
2022/02/21 03:53:11;;;;;;;0.30;0.10;;;6.20;38.90;;;;;;5057496;28;20425;-51
2022/02/21 03:55:37;;;;;;;0.40;0.10;;;5.90;71.50;;;;;;5057649;28;20820;-52
2022/02/21 03:58:05;;;;;;;0.50;0.10;;;5.50;98.60;;;;;;5056899;28;20436;-51
2022/02/21 04:00:32;;;;;;;0.50;0.10;;;5.30;99.90;;;;;;5056979;28;20454;-49
2022/02/21 04:02:59;;;;;;;0.40;0.10;;;5.30;99.90;;;;;;5056414;28;20437;-50
2022/02/21 04:05:27;;;;;;;1.20;0.10;;;5.30;99.90;;;;;;5056975;28;20728;-49
2022/02/21 04:07:54;;;;;;;0.30;0.10;;;5.10;99.90;;;;;;5056790;28;20452;-53
2022/02/21 04:10:21;;;;;;;0.30;0.10;;;5.10;99.90;;;;;;5056451;28;20421;-52
2022/02/21 04:12:48;;;;;;;0.30;0.10;;;5.00;99.90;;;;;;5057005;28;20424;-52
2022/02/21 04:15:15;;;;;;;0.60;0.10;;;5.10;99.90;;;;;;5057246;28;20422;-52
2022/02/21 04:17:43;;;;;;;0.70;0.10;;;4.80;99.90;;;;;;5057438;28;20424;-54
2022/02/21 04:20:11;;;;;;;1.00;0.10;;;4.70;99.90;;;;;;5056899;28;20418;-58
2022/02/21 04:22:40;;;;;;;1.10;0.10;;;4.70;99.90;;;;;;5057236;28;20818;-53
2022/02/21 04:25:09;;;;;;;0.32;0.10;;;4.60;99.90;;;;;;5056982;28;20437;-54
2022/02/21 04:27:43;;;;;;;0.50;0.10;;;4.70;99.90;;;;;;5057499;28;20507;-54
2022/02/21 04:30:11;;;;;;;1.20;0.30;;;4.80;99.90;;;;;;5057330;28;20417;-54
2022/02/21 04:32:39;;;;;;;0.32;0.10;;;4.80;97.90;;;;;;5056963;28;20417;-52
2022/02/21 04:35:08;;;;;;;0.80;0.20;;;4.80;63.30;;;;;;5056943;28;20421;-53
2022/02/21 04:37:36;;;;;;;1.10;0.20;;;4.80;80.60;;;;;;5056965;28;20461;-54
2022/02/21 04:40:04;;;;;;;0.40;0.10;;;4.70;90.20;;;;;;5057153;28;20451;-52
2022/02/21 04:42:31;;;;;;;0.70;0.20;;;4.80;77.40;;;;;;5056856;28;20421;-51
2022/02/21 04:44:58;;;;;;;0.50;0.20;;;4.80;69.00;;;;;;5056742;28;20437;-51
2022/02/21 04:47:25;;;;;;;0.60;0.20;;;4.90;35.00;;;;;;5056249;28;20421;-53
2022/02/21 04:49:52;;;;;;;0.40;0.20;;;5.00;18.40;;;;;;5056617;28;20433;-51
2022/02/21 04:52:19;;;;;;;0.40;0.20;;;5.10;13.00;;;;;;5056308;28;20519;-47
2022/02/21 04:54:46;;;;;;;0.60;0.20;;;5.10;18.50;;;;;;5056372;28;20422;-54
2022/02/21 04:57:15;;;;;;;1.00;0.30;;;5.00;1.00;;;;;;5056677;28;20729;-50
2022/02/21 04:59:42;;;;;;;1.40;0.20;;;5.10;1.00;;;;;;5056241;28;20429;-52
2022/02/21 05:02:08;;;;;;;2.03;0.20;;;5.00;1.00;;;;;;5056137;28;20847;-54
2022/02/21 05:04:35;;;;;;;0.90;0.20;;;5.10;20.20;;;;;;5056142;28;20436;-51
2022/02/21 05:07:02;;;;;;;2.10;0.30;;;5.10;1.00;;;;;;5055982;28;20423;-49
2022/02/21 05:09:29;;;;;;;0.77;0.20;;;5.20;1.00;;;;;;5056035;28;20767;-51
2022/02/21 05:11:56;;;;;;;0.70;0.20;;;5.20;1.00;;;;;;5056126;28;20422;-48
2022/02/21 05:14:25;;;;;;;0.40;0.20;;;5.30;1.00;;;;;;5055325;28;20428;-54
2022/02/21 05:16:52;;;;;;;0.50;0.20;;;5.30;1.00;;;;;;5055920;28;20519;-51
2022/02/21 05:19:19;;;;;;;1.00;0.20;;;5.40;1.00;;;;;;5056395;28;20852;-51
2022/02/21 05:21:45;;;;;;;1.15;0.22;;;5.40;1.00;;;;;;5056077;28;20424;-50
2022/02/21 05:24:12;;;;;;;0.40;0.20;;;5.40;1.00;;;;;;5056154;28;20535;-50
2022/02/21 05:26:39;;;;;;;0.70;0.20;;;5.50;1.00;;;;;;5056061;28;20467;-48
2022/02/21 05:29:06;;;;;;;3.70;0.30;;;5.40;1.00;;;;;;5055935;28;20435;-47
2022/02/21 05:31:34;;;;;;;1.00;0.20;;;5.50;1.00;;;;;;5055656;28;20421;-48
2022/02/21 05:34:01;;;;;;;2.10;0.30;;;5.60;1.00;;;;;;5055945;28;20915;-50
2022/02/21 05:36:27;;;;;;;2.00;0.30;;;5.50;1.00;;;;;;5055765;28;20504;-52
2022/02/21 05:38:54;;;;;;;0.70;0.30;;;5.70;1.00;;;;;;5055872;28;20439;-49
2022/02/21 05:41:21;;;;;;;1.60;0.30;;;5.70;1.00;;;;;;5055314;28;20425;-53
2022/02/21 05:43:48;;;;;;;1.40;0.20;;;5.70;1.00;;;;;;5054903;28;20508;-52
2022/02/21 05:46:15;;;;;;;1.60;0.30;;;5.80;1.00;;;;;;5054916;28;20481;-51
2022/02/21 05:48:43;;;;;;;1.40;0.30;;;5.70;1.00;;;;;;5055271;28;20845;-54
2022/02/21 05:51:10;;;;;;;0.80;0.30;;;5.60;1.00;;;;;;5054473;28;20432;-49
2022/02/21 05:53:41;;;;;;;0.45;0.20;;;5.60;1.00;;;;;;5055227;28;20519;-52
2022/02/21 05:56:08;;;;;;;1.90;0.30;;;5.80;99.90;;;;;;5054231;28;20430;-52
2022/02/21 05:58:35;;;;;;;1.90;0.30;;;5.80;1.00;;;;;;5055419;28;20425;-51
2022/02/21 06:01:02;;;;;;;2.10;0.30;;;5.80;1.00;;;;;;5055024;28;20414;-53
2022/02/21 06:03:29;;;;;;;1.80;0.30;;;5.80;1.00;;;;;;5055756;28;20432;-48
2022/02/21 06:05:58;;;;;;;2.10;0.30;;;5.90;99.90;;;;;;5055106;28;20507;-53
2022/02/21 06:08:24;;;;;;;2.70;0.40;;;5.90;99.90;;;;;;5055409;28;20436;-49
2022/02/21 06:10:51;;;;;;;1.50;0.30;;;6.00;1.00;;;;;;5055387;28;20424;-49
2022/02/21 06:13:18;;;;;;;2.55;0.30;;;6.10;99.90;;;;;;5055286;28;20821;-52
2022/02/21 06:15:45;;;;;;;0.60;0.28;;;6.00;1.00;;;;;;5055236;28;20424;-51
2022/02/21 06:18:12;;;;;;;1.50;0.30;;;6.00;99.90;;;;;;5054833;28;20439;-54
2022/02/21 06:20:39;;;;;;;2.87;0.30;;;6.00;1.00;;;;;;5054428;28;20421;-52
2022/02/21 06:23:07;;;;;;;1.77;0.30;;;6.10;1.00;;;;;;5054834;28;20837;-54
2022/02/21 06:25:35;;;;;;;1.67;0.30;;;6.00;1.00;;;;;;5054331;28;20523;-51
2022/02/21 06:28:01;;;;;;;2.10;0.40;;;6.00;99.90;;;;;;5053713;28;20437;-50
2022/02/21 06:30:28;;;;;;;2.05;0.30;;;6.00;99.90;;;;;;5053901;28;21121;-53
2022/02/21 06:32:55;;;;;;;1.10;0.30;;;6.00;1.00;;;;;;5052368;28;20436;-54
2022/02/21 06:35:22;;;;;;;2.40;0.35;;;6.10;1.00;;;;;;5053384;28;20425;-52
2022/02/21 06:37:52;;;;;;;2.20;0.40;;;5.90;1.00;;;;;;5053266;28;20421;-53
2022/02/21 06:40:20;;;;;;;2.90;0.40;;;5.90;1.00;;;;;;5052530;28;20475;-52
2022/02/21 06:42:48;;;;;;;2.42;0.32;;;5.80;99.90;;;;;;5052876;28;20427;-48
2022/02/21 06:45:16;;;;;;;1.10;0.30;;;6.00;99.90;;;;;;5053020;28;20722;-51
2022/02/21 06:47:43;;;;;;;0.50;0.20;;;6.10;99.90;;;;;;5052870;28;20797;-51
2022/02/21 06:50:10;;;;;;;1.80;0.25;;;6.00;1.00;;;;;;5053470;28;20425;-51
2022/02/21 06:52:37;;;;;;;3.13;0.30;;;6.00;99.90;;;;;;5052975;28;20916;-50
2022/02/21 06:55:05;;;;;;;1.80;0.25;;;6.00;1.00;;;;;;5053479;28;20417;-54
2022/02/21 06:57:33;;;;;;;3.75;0.30;;;6.10;99.90;;;;;;5052267;28;20431;-49
2022/02/21 07:00:00;;;;;;;2.00;0.30;;;6.10;99.90;;;;;;5053646;28;20860;-54
2022/02/21 07:02:27;;;;;;;1.10;0.20;;;6.20;1.00;;;;;;5053641;28;20495;-53
2022/02/21 07:04:54;;;;;;;1.80;0.30;;;6.20;71.80;;;;;;5053830;28;20734;-52
2022/02/21 07:07:20;;;;;;;0.80;0.20;;;6.20;99.90;;;;;;5052930;28;20468;-50
2022/02/21 07:09:47;;;;;;;1.02;0.30;;;6.10;1.00;;;;;;5053159;28;20429;-52
2022/02/21 07:12:14;;;;;;;0.90;0.20;;;6.10;99.90;;;;;;5053674;28;20421;-51
2022/02/21 07:14:42;;;;;;;1.70;0.50;;;6.10;99.90;;;;;;5053890;28;20980;-54
2022/02/21 07:17:09;;;;;;;3.03;0.40;;;6.20;33.70;;;;;;5047366;28;20851;-52
2022/02/21 07:19:36;;;;;;;1.73;0.30;;;6.10;99.90;;;;;;5044815;28;20431;-49
2022/02/21 07:22:03;;;;;;;1.35;0.40;;;6.00;99.90;;;;;;5053849;28;20852;-52
2022/02/21 07:24:31;;;;;;;1.27;0.30;;;6.10;1.00;;;;;;5052435;28;20443;-53
2022/02/21 07:27:00;;;;;;;0.90;0.35;;;6.00;1.00;;;;;;5052319;28;20418;-54
2022/02/21 07:29:27;;;;;;;1.42;0.30;;;6.00;1.00;;;;;;5050202;28;20468;-53
2022/02/21 07:31:55;;;;;;;1.52;0.30;;;6.10;1.00;;;;;;5050507;28;20464;-53
2022/02/21 07:34:22;;;;;;;2.90;0.50;;;6.00;1.00;;;;;;5049737;28;20425;-56
2022/02/21 07:36:49;;;;;;;1.90;0.40;;;6.00;1.00;;;;;;5049889;28;20662;-54
2022/02/21 07:39:17;;;;;;;2.10;0.30;;;6.00;1.00;;;;;;5052484;28;20435;-51
2022/02/21 07:41:44;;;;;;;2.22;0.38;;;5.90;1.00;;;;;;5053869;28;20720;-54
2022/02/21 07:44:11;;;;;;;2.50;0.30;;;5.90;99.90;;;;;;5053582;28;20433;-52
2022/02/21 07:46:38;;;;;;;4.47;0.38;;;5.90;1.00;;;;;;5055213;28;20428;-55
2022/02/21 07:49:06;;;;;;;2.20;0.40;;;6.00;1.00;;;;;;5053390;28;20432;-50
2022/02/21 07:51:33;;;;;;;2.92;0.30;;;6.20;1.00;;;;;;5051317;28;20807;-54
2022/02/21 07:54:00;;;;;;;0.80;0.30;;;6.30;99.90;;;;;;5053213;28;20440;-53
2022/02/21 07:56:27;;;;;;;0.80;0.38;;;6.30;99.90;;;;;;5053630;28;20421;-51
2022/02/21 07:58:54;;;;;;;0.77;0.40;;;6.40;99.90;;;;;;5051632;28;20425;-53
2022/02/21 08:01:20;;;;;;;1.70;0.30;;;6.40;99.90;;;;;;5054057;28;20825;-49
2022/02/21 08:03:47;;;;;;;2.00;0.30;;;6.40;99.90;;;;;;5052512;28;20429;-53
2022/02/21 08:06:16;;;;;;;2.80;0.40;;;6.40;99.90;;;;;;5060682;28;20437;-51
2022/02/21 08:08:43;;;;;;;3.05;0.30;;;6.50;99.90;;;;;;5035079;28;20434;-53
2022/02/21 08:11:10;;;;;;;1.98;0.50;;;6.50;99.90;;;;;;5034057;28;20426;-53
2022/02/21 08:13:36;;;;;;;1.50;0.30;;;6.60;99.90;;;;;;5045987;28;20438;-50
2022/02/21 08:16:04;;;;;;;2.72;0.30;;;6.70;99.90;;;;;;5027077;28;20421;-51
2022/02/21 08:18:33;;;;;;;3.00;0.60;;;6.70;99.90;;;;;;5040712;28;20440;-51
2022/02/21 08:21:00;;;;;;;1.73;0.40;;;6.80;99.90;;;;;;5054613;28;20787;-50
2022/02/21 08:23:28;;;;;;;2.28;0.40;;;6.90;99.90;;;;;;5048828;28;20437;-55
2022/02/21 08:25:55;;;;;;;1.30;0.50;;;6.90;99.90;;;;;;5054369;28;20596;-53
2022/02/21 08:28:23;;;;;;;2.17;0.40;;;7.10;99.90;;;;;;5039571;28;20865;-55
2022/02/21 08:30:49;;;;;;;1.83;0.70;;;7.20;99.90;;;;;;5036412;28;20447;-52
2022/02/21 08:33:16;;;;;;;2.85;0.70;;;7.20;99.90;;;;;;5043110;28;20433;-53
2022/02/21 08:35:43;;;;;;;1.00;0.30;;;7.20;99.90;;;;;;5048067;28;20731;-51
2022/02/21 08:38:14;;;;;;;3.03;0.30;;;7.10;99.90;;;;;;5044838;28;20748;-52
2022/02/21 08:40:45;;;;;;;2.10;0.40;;;7.10;99.90;;;;;;5015768;28;20721;-54
2022/02/21 08:43:12;;;;;;;1.60;0.40;;;7.10;98.50;;;;;;5043817;28;20514;-53
2022/02/21 08:45:39;;;;;;;2.72;0.32;;;7.20;99.90;;;;;;5052126;28;20437;-52
2022/02/21 08:48:06;;;;;;;2.55;0.40;;;7.30;68.60;;;;;;5041839;28;20437;-50
2022/02/21 08:50:33;;;;;;;3.88;0.50;;;7.30;94.40;;;;;;5044430;28;20524;-53
2022/02/21 08:53:00;;;;;;;1.83;0.40;;;7.50;99.90;;;;;;5046367;28;20431;-49
2022/02/21 08:55:27;;;;;;;2.78;0.60;;;7.60;99.90;;;;;;5044843;28;20520;-51
2022/02/21 08:57:55;;;;;;;2.70;0.30;;;7.70;56.30;;;;;;5046056;28;20418;-53
2022/02/21 09:00:22;;;;;;;3.83;0.40;;;7.90;37.30;;;;;;5044555;28;20524;-53
2022/02/21 09:02:49;;;;;;;1.63;0.30;;;7.80;46.10;;;;;;5051608;28;20431;-52
2022/02/21 09:05:16;;;;;;;3.10;0.40;;;7.90;29.60;;;;;;5034614;28;20430;-50
2022/02/21 09:07:43;;;;;;;1.13;0.40;;;8.00;35.70;;;;;;5033361;28;20854;-60
2022/02/21 09:10:10;;;;;;;2.57;0.40;;;8.30;32.50;;;;;;5042510;28;20429;-54
2022/02/21 09:12:37;;;;;;;2.30;0.40;;;8.30;1.10;;;;;;5039206;28;20900;-52
2022/02/21 09:15:06;;;;;;;3.10;0.60;;;8.20;1.00;;;;;;5053840;28;20443;-55
2022/02/21 09:17:33;;;;;;;2.00;0.40;;;7.90;1.00;;;;;;5053922;28;20479;-56
2022/02/21 09:20:00;;;;;;;5.00;0.60;;;7.90;1.00;;;;;;5053919;28;20429;-53
2022/02/21 09:22:27;;;;;;;1.88;0.50;;;8.00;1.00;;;;;;5055032;28;20428;-55
2022/02/21 09:24:54;;;;;;;1.65;0.40;;;8.10;5.50;;;;;;5053295;28;20441;-55
2022/02/21 09:27:21;;;;;;;1.57;0.30;;;8.10;1.00;;;;;;5052196;28;20435;-54
2022/02/21 09:29:48;;;;;;;1.30;0.40;;;8.30;1.00;;;;;;5056216;28;20427;-56
2022/02/21 09:32:16;;;;;;;1.70;0.30;;;8.20;1.00;;;;;;5054262;28;20801;-55
2022/02/21 09:34:43;;;;;;;1.08;0.30;;;8.10;1.00;;;;;;5055053;28;20850;-55
2022/02/21 09:37:10;;;;;;;1.20;0.30;;;8.20;1.00;;;;;;5055193;28;20417;-53
2022/02/21 09:39:37;;;;;;;2.30;0.30;;;8.20;1.00;;;;;;5054741;28;20439;-52
2022/02/21 09:42:05;;;;;;;1.20;0.40;;;8.10;1.00;;;;;;5054032;28;20421;-53
2022/02/21 09:44:32;;;;;;;1.80;0.40;;;8.20;1.00;;;;;;5052891;28;20428;-55
2022/02/21 09:46:59;;;;;;;1.30;0.30;;;8.30;1.00;;;;;;5050695;28;20536;-53
2022/02/21 09:49:30;;;;;;;2.33;0.40;;;8.30;1.00;;;;;;5052140;28;20417;-53
2022/02/21 09:51:57;;;;;;;3.30;0.22;;;8.40;1.00;;;;;;5051442;28;20439;-52
2022/02/21 09:54:24;;;;;;;1.33;0.30;;;8.70;1.00;;;;;;5052939;28;20740;-51
2022/02/21 09:56:53;;;;;;;1.60;0.40;;;8.50;1.00;;;;;;5053560;28;20428;-50
2022/02/21 09:59:20;;;;;;;1.20;0.30;;;8.40;1.00;;;;;;5053948;28;20709;-53
2022/02/21 10:01:47;;;;;;;1.90;0.30;;;8.30;1.00;;;;;;5052369;28;20496;-56
2022/02/21 10:04:22;;;;;;;1.60;0.30;;;8.10;1.00;;;;;;5054306;28;20432;-53
2022/02/21 10:06:52;;;;;;;1.90;0.30;;;8.20;1.00;;;;;;5053811;28;20429;-53
2022/02/21 10:09:19;;;;;;;2.00;0.30;;;8.30;1.00;;;;;;5053869;28;20845;-53
2022/02/21 10:11:47;;;;;;;4.10;0.30;;;8.30;1.00;;;;;;5053850;28;20417;-55
2022/02/21 10:14:15;;;;;;;2.70;0.40;;;8.10;1.00;;;;;;5054597;28;20429;-53
2022/02/21 10:16:45;;;;;;;3.50;0.47;;;8.10;1.00;;;;;;5053470;28;20416;-52
2022/02/21 10:19:20;;;;;;;3.10;0.50;;;8.40;1.00;;;;;;5052871;28;20429;-55
2022/02/21 10:21:57;;;;;;;1.20;0.30;;;8.00;1.00;;;;;;5048092;28;20503;-53
2022/02/21 10:24:24;;;;;;;1.02;0.30;;;8.10;1.00;;;;;;5041547;28;20468;-55
2022/02/21 10:26:51;;;;;;;0.70;0.30;;;8.00;1.00;;;;;;5035901;28;20435;-57
2022/02/21 10:29:20;;;;;;;0.57;0.30;;;8.10;1.00;;;;;;5033554;28;20435;-56
2022/02/21 10:31:47;;;;;;;0.82;0.30;;;8.10;1.00;;;;;;5040299;28;20726;-58
2022/02/21 10:34:14;;;;;;;1.50;0.30;;;8.20;1.00;;;;;;5033471;28;20749;-55
2022/02/21 10:36:42;;;;;;;0.98;0.40;;;8.30;1.00;;;;;;5038463;28;20428;-56
2022/02/21 10:39:13;;;;;;;2.45;0.50;;;8.40;1.00;;;;;;5040518;28;20426;-57
2022/02/21 10:41:41;;;;;;;1.70;0.40;;;8.70;1.00;;;;;;5045711;28;20430;-59
2022/02/21 10:44:30;;;;;;;1.45;0.20;;;8.70;1.00;;;;;;5053428;28;20429;-60
2022/02/21 10:47:06;;;;;;;0.80;0.20;;;8.30;1.00;;;;;;5047989;28;20440;-59
2022/02/21 10:49:35;;;;;;;1.10;0.30;;;8.10;1.00;;;;;;5052288;28;20832;-59
2022/02/21 10:52:03;;;;;;;0.70;0.20;;;8.20;1.00;;;;;;5052283;28;20432;-58
2022/02/21 10:54:33;;;;;;;1.48;0.30;;;8.40;1.00;;;;;;5053767;28;20424;-58
2022/02/21 10:57:01;;;;;;;0.70;0.30;;;8.60;1.00;;;;;;5052869;28;20494;-59
2022/02/21 10:59:29;;;;;;;1.17;0.30;;;8.70;1.00;;;;;;5058414;28;20443;-56
2022/02/21 11:01:57;;;;;;;2.65;0.40;;;9.00;1.00;;;;;;5072989;28;20423;-60
2022/02/21 11:04:25;;;;;;;1.80;0.30;;;9.30;1.00;;;;;;5072924;28;20888;-59
2022/02/21 11:06:52;;;;;;;0.70;0.20;;;9.40;1.00;;;;;;5072363;28;20526;-57
2022/02/21 11:09:20;;;;;;;1.00;0.30;;;9.30;1.00;;;;;;5072838;28;20426;-57
2022/02/21 11:11:50;;;;;;;0.95;0.30;;;9.30;1.00;;;;;;5072696;28;20424;-58
2022/02/21 11:14:20;;;;;;;0.80;0.30;;;9.30;1.00;;;;;;5075460;28;20477;-57
2022/02/21 11:16:48;;;;;;;0.90;0.30;;;9.60;1.00;;;;;;5077240;28;20727;-56
2022/02/21 11:19:16;;;;;;;1.60;0.30;;;9.70;1.00;;;;;;5075622;28;20464;-56
2022/02/21 11:21:43;;;;;;;0.70;0.30;;;9.80;1.00;;;;;;5077029;28;20708;-54
2022/02/21 11:24:12;;;;;;;0.70;0.30;;;9.40;1.00;;;;;;5068726;28;20454;-55
2022/02/21 11:26:43;;;;;;;1.10;0.30;;;9.10;1.00;;;;;;5054066;28;20441;-54
2022/02/21 11:29:21;;;;;;;3.40;0.70;;;9.10;1.00;;;;;;5057271;28;20421;-49
2022/02/21 11:31:48;;;;;;;1.07;0.30;;;9.30;1.00;;;;;;5056918;28;20793;-52
2022/02/21 11:34:15;;;;;;;0.90;0.30;;;9.30;1.00;;;;;;5055324;28;20447;-53
2022/02/21 11:36:47;;;;;;;1.58;0.30;;;8.90;1.00;;;;;;5050986;28;20439;-52
2022/02/21 11:39:23;;;;;;;2.65;0.40;;;8.60;1.00;;;;;;5055393;28;20432;-55
2022/02/21 11:42:04;;;;;;;2.50;0.30;;;8.30;99.90;;;;;;5056216;28;20819;-56
2022/02/21 11:44:44;;;;;;;1.45;0.30;;;8.00;1.00;;;;;;5056669;28;20429;-54
2022/02/21 11:47:31;;;;;;;1.92;0.40;;;8.20;1.00;;;;;;5056391;28;20433;-55
2022/02/21 11:49:58;;;;;;;2.10;0.30;;;8.00;1.00;;;;;;5055087;28;20722;-55
2022/02/21 11:52:29;;;;;;;0.60;0.30;;;8.20;99.90;;;;;;5054633;28;20508;-54
2022/02/21 11:54:56;;;;;;;0.93;0.30;;;8.40;1.00;;;;;;5056762;28;20704;-57
2022/02/21 11:57:29;;;;;;;0.40;0.20;;;9.00;99.90;;;;;;5054612;28;20822;-56
2022/02/21 11:59:57;;;;;;;0.60;0.20;;;9.60;10.50;;;;;;5033995;28;20431;-56
2022/02/21 12:02:24;;;;;;;0.98;0.40;;;9.70;1.00;;;;;;5032334;28;20518;-57
2022/02/21 12:04:54;;;;;;;1.50;0.60;;;9.70;1.00;;;;;;5037905;28;21016;-58
2022/02/21 12:07:23;;;;;;;4.60;0.80;;;9.60;1.00;;;;;;5048087;28;20450;-58
2022/02/21 12:10:24;;;;;;;7.20;2.00;;;9.80;1.00;;;;;;5072533;28;20427;-57
2022/02/21 12:12:57;;;;;;;1.42;0.40;;;9.60;1.00;;;;;;5048422;28;20503;-58
2022/02/21 12:15:27;;;;;;;0.70;0.30;;;9.30;1.00;;;;;;5051867;28;20430;-57
2022/02/21 12:18:48;;;;;;;3.20;0.30;;;9.40;1.00;;;;;;5052647;28;20430;-58
2022/02/21 12:21:17;;;;;;;1.98;0.30;;;9.40;1.00;;;;;;5039611;28;20820;-57
2022/02/21 12:24:05;;;;;;;2.33;0.50;;;9.50;1.00;;;;;;5054004;28;20888;-58
2022/02/21 12:26:32;;;;;;;1.30;0.20;;;9.50;1.00;;;;;;5055673;28;20437;-58
2022/02/21 12:29:10;;;;;;;2.10;0.50;;;9.60;1.00;;;;;;5055993;28;20429;-59
2022/02/21 12:31:43;;;;;;;0.70;0.30;;;9.70;1.00;;;;;;5054838;28;20425;-57
2022/02/21 12:34:11;;;;;;;1.88;0.50;;;9.50;1.00;;;;;;5054514;28;20496;-58
2022/02/21 12:36:40;;;;;;;1.75;0.30;;;9.70;1.00;;;;;;5055039;28;20473;-58
2022/02/21 12:39:09;;;;;;;0.60;0.30;;;9.50;1.00;;;;;;5053127;28;20969;-59
2022/02/21 12:41:38;;;;;;;0.50;0.20;;;9.30;1.00;;;;;;5053286;28;20417;-58
2022/02/21 12:44:07;;;;;;;1.80;0.30;;;9.10;1.00;;;;;;5053903;28;20429;-58
2022/02/21 12:46:35;;;;;;;0.60;0.20;;;9.00;1.00;;;;;;5053089;28;20433;-58
2022/02/21 12:49:07;;;;;;;1.30;0.20;;;8.90;1.00;;;;;;5051978;28;20506;-58
2022/02/21 12:51:36;;;;;;;0.40;0.20;;;8.90;1.00;;;;;;5052559;28;20432;-57
2022/02/21 12:54:05;;;;;;;0.57;0.20;;;8.90;1.00;;;;;;5052316;28;20429;-59
2022/02/21 12:56:43;;;;;;;1.27;0.30;;;8.80;1.00;;;;;;5052429;28;20851;-58
2022/02/21 12:59:11;;;;;;;0.40;0.20;;;8.70;1.00;;;;;;5052719;28;20736;-57
2022/02/21 13:01:38;;;;;;;1.00;0.40;;;8.60;1.00;;;;;;5053735;28;20512;-59
2022/02/21 13:04:08;;;;;;;1.50;0.20;;;8.70;1.00;;;;;;5073855;28;20510;-58
2022/02/21 13:06:35;;;;;;;0.87;0.20;;;8.70;1.00;;;;;;5073672;28;20850;-60
2022/02/21 13:09:03;;;;;;;1.85;0.40;;;8.80;1.00;;;;;;5073216;28;20527;-59